Fox Lake, Illinois
Current Conditions -  °F | °C
As of 5:21 AM on Saturday 25 Oct 2014 (Local Time) from KUGN Reporting Station
Haze Haze  
Wind Chill: 56°   Ceiling: Unl
Heat Index: 56°   Visibility: 6mi
Dew Point: 53°   Wind: 7mph
Humidity: 90%   Direction: NA
Pressure: 29.87"   Gusts: NA
Location:  42.39°N, 88.16°W
Report Text: KUGN 251021Z AUTO VRB06KT 6SM BR SCT011 13/12 A2987 RMK AO2 T01330117
Loading
Personal Weather Stations






























Interactive Weather Map
Tropical Storm Tracking
New forecast layout! Learn more

10-Day Weather Forecast

Advertisements
Track Severe Weather on mobile